Radiosonde details



Informationen :

Serial : X3123536
Type : RS41-SGE
Frequency : 403.000MHz
Launchsite : Keflavikurflugvollur
Nearest town : Reykjavík, IS (1.2km)

Altitude (Max) : 27641m at 2026-09-04 12:47:05
Speed (Max) : 74km/h at altitude 79m

Average speed : 24km/h
Average ascent rate : 5m/s
Average descent rate : -17m/s
Ascent rate (Max) : 7.4m/s
Descent rate (Max): -26.7m/s

First frame :
DL9RDZ-2 at 2026-09-04 11:19:58 at altitude 762m (OG: 720m)
Last frame :
DL9RDZ-1 at 2026-09-04 18:47:52 at altitude 100m (OG: 58m)

Flighttime : 7h27m54s
Ascent time : 1h27m7s
Descent time : 6h0m47s
Uptime : -
Killtimer : 2h31m

Distance (Straight line distance): 39km

Distance (Route):


Frames : 422


Measurement :

Temperature : 22.4°C
Humidity : 47.0%
Pressure : 0hPa


Vertical profile (SkewT) :


Elevation profile :



Receiving stations :


Receiver Frames First received Last received
DL9RDZ-1 422 2026-09-04 11:19:58 2026-09-04 18:47:52

Share per receiver :



All frames :


Receiver Date Latitude Longitude Direction Speed Altitude Climb Temperature Humidity Pressure Voltage Killtimer Uptime BKT XDATA
DL9RDZ-12026-09-04 18:47:5264.12474-21.89932356°69km/h100m0.9m/s22.4°C47.0%0hPa0V02:31:0000:00:0000:00:00
DL9RDZ-12026-09-04 18:47:4164.12275-21.89893357°73km/h86m1.1m/s22.3°C47.4%0hPa0V02:31:0000:00:0000:00:00
DL9RDZ-12026-09-04 18:47:3164.12092-21.89857357°73km/h79m0.6m/s22.2°C47.7%0hPa0V02:31:0000:00:0000:00:00
DL9RDZ-12026-09-04 18:47:2164.11915-21.89827357°71km/h76m0.3m/s22.3°C47.4%0hPa0V02:31:0000:00:0000:00:00
DL9RDZ-12026-09-04 18:47:1064.11721-21.8979771km/h74m-0.1m/s22.3°C47.3%0hPa0V02:31:0000:00:0000:00:00
DL9RDZ-12026-09-04 18:46:5964.11536-21.8991934°69km/h79m-0.9m/s22.3°C47.6%0hPa0V02:31:0000:00:0000:00:00
DL9RDZ-12026-09-04 18:46:4864.11406-21.9022956°68km/h88m-0.8m/s22.4°C47.5%0hPa0V02:31:0000:00:0000:00:00
DL9RDZ-12026-09-04 18:46:3864.11310-21.9053750°62km/h101m-0.6m/s22.3°C47.9%0hPa0V00:00:0000:00:0000:00:00
DL9RDZ-12026-09-04 18:46:2764.11162-21.90780360°58km/h93m-1.4m/s22.3°C47.5%0hPa0V00:00:0000:00:0000:00:00
DL9RDZ-12026-09-04 13:05:5664.03145-21.88315129°26km/h340m-13.9m/s8.2°C88.1%0hPa0V08:12:0000:00:0000:00:00
DL9RDZ-12026-09-04 13:05:4664.03181-21.88403139°22km/h466m-13.9m/s7.0°C92.6%0hPa0V08:13:0000:00:0000:00:00
DL9RDZ-12026-09-04 13:05:3664.03232-21.88503144°27km/h615m-15.1m/s5.7°C90.4%0hPa0V08:13:0000:00:0000:00:00
DL9RDZ-12026-09-04 13:05:2564.03290-21.88601151°26km/h771m-14.0m/s4.5°C89.8%0hPa0V08:13:0000:00:0000:00:00
DL9RDZ-12026-09-04 13:05:1464.03339-21.88666151°22km/h906m-14.9m/s3.6°C92.0%0hPa0V08:13:0000:00:0000:00:00
DL9RDZ-12026-09-04 13:05:0464.03380-21.88721159°15km/h1043m-14.2m/s3.1°C90.3%0hPa0V08:13:0000:00:0000:00:00
DL9RDZ-12026-09-04 13:04:5364.03423-21.88777150°22km/h1200m-14.8m/s2.4°C86.9%0hPa0V08:14:0000:00:0000:00:00
DL9RDZ-12026-09-04 13:04:4264.03468-21.88841147°20km/h1350m-14.3m/s1.0°C94.7%0hPa0V08:14:0000:00:0000:00:00
DL9RDZ-12026-09-04 13:04:3164.03516-21.88901157°18km/h1499m-12.6m/s-0.3°C0%0hPa0V08:14:0000:00:0000:00:00
DL9RDZ-12026-09-04 13:04:2164.03551-21.88939158°11km/h1627m-14.7m/s0.1°C89.9%0hPa0V08:14:0000:00:0000:00:00
DL9RDZ-12026-09-04 13:04:1164.03576-21.88941173°11km/h1764m-14.4m/s-0.7°C94.5%0hPa0V08:14:0000:00:0000:00:00
DL9RDZ-12026-09-04 13:04:0164.03595-21.88969146°13km/h1902m-15.1m/s-1.2°C91.1%0hPa0V08:15:0000:00:0000:00:00
DL9RDZ-12026-09-04 13:03:5164.03611-21.88987176°4km/h2046m-15.3m/s-1.7°C83.2%0hPa0V08:15:0000:00:0000:00:00
DL9RDZ-12026-09-04 13:03:4164.03621-21.88968247°4km/h2209m-15.7m/s-2.7°C91.0%0hPa0V08:15:0000:00:0000:00:00
DL9RDZ-12026-09-04 13:03:3064.03625-21.88949213°4km/h2355m-15.1m/s-3.8°C93.2%0hPa0V08:15:0000:00:0000:00:00
DL9RDZ-12026-09-04 13:03:1964.03632-21.88940228°4km/h2510m-15.6m/s-4.6°C87.6%0hPa0V08:15:0000:00:0000:00:00
DL9RDZ-12026-09-04 13:03:0964.03637-21.88940191°5km/h2655m-15.2m/s-5.1°C80.0%0hPa0V08:16:0000:00:0000:00:00
DL9RDZ-12026-09-04 13:02:5964.03643-21.88955156°4km/h2803m-15.7m/s-6.2°C83.5%0hPa0V08:16:0000:00:0000:00:00
DL9RDZ-12026-09-04 13:02:4964.03650-21.88981103°5km/h2946m-15.7m/s-6.9°C77.5%0hPa0V08:16:0000:00:0000:00:00
DL9RDZ-12026-09-04 13:02:3964.03643-21.8902686°9km/h3098m-15.7m/s-8.1°C80.6%0hPa0V08:16:0000:00:0000:00:00
DL9RDZ-12026-09-04 13:02:2864.03645-21.89080100°7km/h3265m-15.4m/s-9.2°C77.4%0hPa0V08:16:0000:00:0000:00:00
DL9RDZ-12026-09-04 13:02:1864.03651-21.89109140°5km/h3430m-16.0m/s-10.3°C64.2%0hPa0V08:17:0000:00:0000:00:00
DL9RDZ-12026-09-04 13:02:0764.03653-21.89127123°4km/h3583m-16.2m/s-11.1°C63.7%0hPa0V08:17:0000:00:0000:00:00
DL9RDZ-12026-09-04 13:01:5664.03660-21.89170111°15km/h3741m-16.0m/s-11.1°C43.1%0hPa0V08:17:0000:00:0000:00:00
DL9RDZ-12026-09-04 13:01:4564.03679-21.89250123°15km/h3919m-17.5m/s-12.4°C62.4%0hPa0V08:17:0000:00:0000:00:00
DL9RDZ-12026-09-04 13:01:3464.03702-21.89310145°13km/h4096m-17.2m/s-14.0°C72.9%0hPa0V08:17:0000:00:0000:00:00
DL9RDZ-12026-09-04 13:01:1364.03743-21.8938899°13km/h4439m-17.2m/s-15.7°C73.2%0hPa0V08:17:0000:00:0000:00:00
DL9RDZ-12026-09-04 13:01:0264.03755-21.89452144°7km/h4623m-17.4m/s-16.6°C56.4%0hPa0V08:17:0000:00:0000:00:00
DL9RDZ-12026-09-04 13:00:5264.03769-21.89490131°9km/h4795m-16.8m/s-18.1°C71.1%0hPa0V08:17:0000:00:0000:00:00
DL9RDZ-12026-09-04 13:00:4164.03786-21.89541129°11km/h4980m-17.4m/s-19.5°C65.6%0hPa0V08:18:0000:00:0000:00:00
DL9RDZ-12026-09-04 13:00:3164.03802-21.89580131°9km/h5152m-18.4m/s-20.9°C62.1%0hPa0V08:18:0000:00:0000:00:00
DL9RDZ-12026-09-04 13:00:2164.03818-21.89625128°13km/h5326m-17.9m/s-22.5°C68.4%0hPa0V08:18:0000:00:0000:00:00
DL9RDZ-12026-09-04 13:00:0064.03854-21.89749126°11km/h5682m-18.0m/s-25.5°C75.9%0hPa0V08:18:0000:00:0000:00:00
DL9RDZ-12026-09-04 12:59:5064.03882-21.89820139°16km/h5869m-17.1m/s-26.8°C77.8%0hPa0V08:19:0000:00:0000:00:00
DL9RDZ-12026-09-04 12:59:3964.03914-21.89891139°16km/h6037m-17.2m/s-28.0°C76.6%0hPa0V08:19:0000:00:0000:00:00
DL9RDZ-12026-09-04 12:59:2964.03953-21.89974138°24km/h6211m-18.5m/s-29.4°C64.4%0hPa0V08:19:0000:00:0000:00:00
DL9RDZ-12026-09-04 12:59:1764.04008-21.90090144°24km/h6446m-17.3m/s-31.3°C66.5%0hPa0V08:19:0000:00:0000:00:00
DL9RDZ-12026-09-04 12:59:0764.04044-21.90184125°18km/h6618m-17.9m/s-32.6°C70.3%0hPa0V08:19:0000:00:0000:00:00
DL9RDZ-12026-09-04 12:58:5564.04072-21.90287128°16km/h6811m-18.0m/s-34.1°C71.1%0hPa0V00:00:0000:00:0000:00:00
DL9RDZ-12026-09-04 12:58:4464.04096-21.90382126°15km/h7011m-19.0m/s-35.8°C73.3%0hPa0V00:00:0000:00:0000:00:00
DL9RDZ-12026-09-04 12:58:3364.04116-21.90463116°13km/h7212m-18.6m/s-37.3°C71.4%0hPa0V00:00:0000:00:0000:00:00
DL9RDZ-12026-09-04 12:58:2364.04134-21.90532125°15km/h7398m-19.7m/s-38.7°C66.6%0hPa0V00:00:0000:00:0000:00:00
DL9RDZ-12026-09-04 12:58:1264.04157-21.90597139°11km/h7611m-19.4m/s-40.5°C71.6%0hPa0V00:00:0000:00:0000:00:00
DL9RDZ-12026-09-04 12:58:0164.04177-21.90662116°9km/h7819m-19.1m/s-42.0°C66.3%0hPa0V08:21:0000:00:0000:00:00
DL9RDZ-12026-09-04 12:57:5164.04193-21.90713121°9km/h8032m-21.4m/s-43.7°C61.4%0hPa0V08:21:0000:00:0000:00:00
DL9RDZ-12026-09-04 12:57:4064.04205-21.90769117°9km/h8238m-20.7m/s-45.6°C56.8%0hPa0V08:21:0000:00:0000:00:00
DL9RDZ-12026-09-04 12:57:2564.04203-21.90818337°4km/h8549m-20.4m/s-47.7°C47.2%0hPa0V08:21:0000:00:0000:00:00
DL9RDZ-12026-09-04 12:57:1464.04192-21.90811339°7km/h8779m-21.0m/s-49.0°C56.2%0hPa0V08:22:0000:00:0000:00:00
DL9RDZ-12026-09-04 12:57:0364.04166-21.90780318°9km/h9012m-20.4m/s-50.7°C53.8%0hPa0V08:22:0000:00:0000:00:00
DL9RDZ-12026-09-04 12:56:5264.04136-21.90772358°11km/h9226m-19.1m/s-51.9°C37.8%0hPa0V08:22:0000:00:0000:00:00
DL9RDZ-12026-09-04 12:56:4164.04109-21.9081247°15km/h9439m-20.1m/s-52.8°C30.1%0hPa0V08:22:0000:00:0000:00:00
DL9RDZ-12026-09-04 12:56:3064.04092-21.9088779°11km/h9670m-22.2m/s-53.2°C26.7%0hPa0V08:22:0000:00:0000:00:00
DL9RDZ-12026-09-04 12:56:2064.04079-21.9093743°9km/h9884m-21.0m/s-53.7°C20.8%0hPa0V08:22:0000:00:0000:00:00
DL9RDZ-12026-09-04 12:56:0964.04047-21.9102562°22km/h10111m-22.8m/s-53.4°C14.0%0hPa0V08:22:0000:00:0000:00:00
DL9RDZ-12026-09-04 12:55:4764.04018-21.9124769°24km/h10595m-24.2m/s-50.1°C3.6%0hPa0V08:22:0000:00:0000:00:00
DL9RDZ-12026-09-04 12:55:3764.04007-21.9138191°24km/h10830m-23.7m/s-47.9°C2.3%0hPa0V00:00:0000:00:0000:00:00
DL9RDZ-12026-09-04 12:55:2764.04005-21.9153783°31km/h11054m-22.6m/s-46.8°C1.8%0hPa0V00:00:0000:00:0000:00:00
DL9RDZ-12026-09-04 12:55:1664.03996-21.9172378°35km/h11312m-24.8m/s-46.4°C1.6%0hPa0V00:00:0000:00:0000:00:00
DL9RDZ-12026-09-04 12:54:5664.03970-21.9201874°35km/h11833m-26.3m/s-45.8°C1.2%0hPa0V00:00:0000:00:0000:00:00
DL9RDZ-12026-09-04 12:54:4464.03944-21.9222981°33km/h12105m-25.3m/s-45.8°C1.2%0hPa0V00:00:0000:00:0000:00:00
DL9RDZ-12026-09-04 12:54:2964.03919-21.9253184°37km/h12490m-26.7m/s-45.0°C0.6%0hPa0V00:00:0000:00:0000:00:00
DL9RDZ-12026-09-04 12:47:0564.02761-21.9948640°31km/h27641m5.2m/s-45.7°C0.6%0hPa0V00:00:0000:00:0000:00:00
DL9RDZ-12026-09-04 12:46:5464.02695-21.9962639°27km/h27576m6.8m/s-46.6°C0.7%0hPa0V00:00:0000:00:0000:00:00
DL9RDZ-12026-09-04 12:46:4364.02599-21.9972233°33km/h27510m5.7m/s-47.0°C0.7%0hPa0V00:00:0000:00:0000:00:00
DL9RDZ-12026-09-04 12:46:3364.02533-21.99793361°35km/h27451m5.3m/s-47.0°C0.7%0hPa0V00:00:0000:00:0000:00:00
DL9RDZ-12026-09-04 12:46:2364.02468-21.9980217°16km/h27393m3.8m/s-47.0°C0.7%0hPa0V00:00:0000:00:0000:00:00
DL9RDZ-12026-09-04 12:46:1164.02381-21.9979016km/h27320m5.3m/s-47.6°C0.7%0hPa0V00:00:0000:00:0000:00:00
DL9RDZ-12026-09-04 12:44:0264.02023-22.0046476°29km/h26521m6.5m/s-47.3°C0.7%0hPa0V00:00:0000:00:0000:00:00
DL9RDZ-12026-09-04 12:43:5264.01975-22.0060951°31km/h26450m6.0m/s-47.4°C0.8%0hPa0V00:00:0000:00:0000:00:00
DL9RDZ-12026-09-04 12:43:3364.01883-22.0088447°35km/h26336m7.0m/s-47.2°C0.7%0hPa0V00:00:0000:00:0000:00:00
DL9RDZ-12026-09-04 12:43:2264.01814-22.0105640°37km/h26267m5.5m/s-47.1°C0.8%0hPa0V00:00:0000:00:0000:00:00
DL9RDZ-12026-09-04 12:43:1064.01728-22.0123453°37km/h26189m7.4m/s-46.9°C0.7%0hPa0V00:00:0000:00:0000:00:00
DL9RDZ-12026-09-04 12:42:5964.01654-22.0144147°38km/h26113m7.3m/s-46.7°C0.7%0hPa0V00:00:0000:00:0000:00:00
DL9RDZ-12026-09-04 12:42:2664.01418-22.0179431°33km/h25904m5.2m/s-46.7°C0.7%0hPa0V00:00:0000:00:0000:00:00
DL9RDZ-12026-09-04 12:40:0464.01051-22.0294898°42km/h25025m6.5m/s-47.0°C0.7%0hPa0V00:00:0000:00:0000:00:00
DL9RDZ-12026-09-04 12:39:5364.01053-22.0316581°42km/h24956m4.5m/s-46.5°C0.7%0hPa0V00:00:0000:00:0000:00:00
DL9RDZ-12026-09-04 12:39:1164.01026-22.0392797°22km/h24697m7.1m/s-46.6°C0.7%0hPa0V00:00:0000:00:0000:00:00
DL9RDZ-12026-09-04 12:38:5964.01015-22.0413582°40km/h24624m6.1m/s-46.9°C0.7%0hPa0V00:00:0000:00:0000:00:00
DL9RDZ-12026-09-04 12:38:4864.00988-22.0437474°37km/h24560m6.6m/s-46.8°C0.7%0hPa0V00:00:0000:00:0000:00:00
DL9RDZ-12026-09-04 12:38:3764.00964-22.0458974°24km/h24496m5.4m/s-47.0°C0.8%0hPa0V00:00:0000:00:0000:00:00
DL9RDZ-12026-09-04 12:38:2464.00934-22.0477787°31km/h24419m4.8m/s-47.0°C0.8%0hPa0V00:00:0000:00:0000:00:00
DL9RDZ-12026-09-04 12:37:5664.00854-22.0520651°29km/h24254m6.5m/s-47.0°C0.8%0hPa0V00:00:0000:00:0000:00:00
DL9RDZ-12026-09-04 12:35:2764.00329-22.0740330°35km/h23349m5.0m/s-47.7°C0.8%0hPa0V00:00:0000:00:0000:00:00
DL9RDZ-12026-09-04 12:35:1664.00253-22.0754745°29km/h23285m6.3m/s-47.8°C0.8%0hPa0V00:00:0000:00:0000:00:00
DL9RDZ-12026-09-04 12:35:0564.00196-22.0769563°27km/h23220m6.6m/s-47.9°C0.8%0hPa0V00:00:0000:00:0000:00:00
DL9RDZ-12026-09-04 12:33:3563.99753-22.0947345°40km/h22682m5.5m/s-47.2°C0.8%0hPa0V00:00:0000:00:0000:00:00
DL9RDZ-12026-09-04 12:33:2063.99655-22.0971958°35km/h22593m4.8m/s-47.4°C0.9%0hPa0V00:00:0000:00:0000:00:00
DL9RDZ-12026-09-04 12:33:0963.99608-22.0992079°38km/h22528m4.7m/s-47.4°C0.9%0hPa0V00:00:0000:00:0000:00:00
DL9RDZ-12026-09-04 12:31:5163.99267-22.1167973°37km/h22057m5.7m/s-47.4°C0.9%0hPa0V00:00:0000:00:0000:00:00
DL9RDZ-12026-09-04 12:31:4063.99221-22.1189859°37km/h21990m4.9m/s-47.6°C0.9%0hPa0V00:00:0000:00:0000:00:00
DL9RDZ-12026-09-04 12:31:2963.99171-22.1210159°37km/h21925m4.8m/s-47.5°C0.9%0hPa0V00:00:0000:00:0000:00:00
DL9RDZ-12026-09-04 12:31:1863.99108-22.1230953°35km/h21861m4.3m/s-47.6°C0.9%0hPa0V00:00:0000:00:0000:00:00
DL9RDZ-12026-09-04 12:31:0763.99032-22.1251441°38km/h21797m5.0m/s-47.7°C0.9%0hPa0V00:00:0000:00:0000:00:00
DL9RDZ-12026-09-04 12:30:3963.98881-22.1296968°27km/h21641m5.2m/s-47.5°C0.9%0hPa0V00:00:0000:00:0000:00:00
DL9RDZ-12026-09-04 12:30:2363.98849-22.1327268°33km/h21553m4.5m/s-47.5°C0.9%0hPa0V00:00:0000:00:0000:00:00
DL9RDZ-12026-09-04 12:29:1063.98411-22.1486754°51km/h21160m5.1m/s-48.0°C0.9%0hPa0V00:00:0000:00:0000:00:00
DL9RDZ-12026-09-04 12:29:0063.98323-22.1504240°44km/h21104m5.8m/s-47.9°C0.9%0hPa0V00:00:0000:00:0000:00:00
DL9RDZ-12026-09-04 12:28:4963.98230-22.1521842°37km/h21044m4.2m/s-47.8°C0.9%0hPa0V00:00:0000:00:0000:00:00
DL9RDZ-12026-09-04 12:27:5163.97891-22.1601062°27km/h20734m4.9m/s-47.2°C0.9%0hPa0V00:00:0000:00:0000:00:00
DL9RDZ-12026-09-04 12:27:4063.97836-22.1615745°35km/h20672m4.7m/s-47.2°C0.9%0hPa0V00:00:0000:00:0000:00:00
DL9RDZ-12026-09-04 12:27:2963.97784-22.1627845°31km/h20610m5.8m/s-47.5°C0.9%0hPa0V00:00:0000:00:0000:00:00
DL9RDZ-12026-09-04 12:27:1863.97734-22.1641065°27km/h20548m5.9m/s-47.6°C0.9%0hPa0V00:00:0000:00:0000:00:00
DL9RDZ-12026-09-04 12:26:2863.97565-22.1729672°42km/h20259m5.8m/s-47.4°C0.9%0hPa0V00:00:0000:00:0000:00:00
DL9RDZ-12026-09-04 12:26:1963.97518-22.1750353°35km/h20203m6.5m/s-47.1°C0.9%0hPa0V00:00:0000:00:0000:00:00
DL9RDZ-12026-09-04 12:26:0763.97454-22.1768243°35km/h20137m5.3m/s-47.2°C0.9%0hPa0V00:00:0000:00:0000:00:00
DL9RDZ-12026-09-04 12:25:5663.97383-22.1784739°40km/h20074m5.6m/s-47.1°C0.9%0hPa0V00:00:0000:00:0000:00:00
DL9RDZ-12026-09-04 12:25:4663.97310-22.1798934°35km/h20016m4.7m/s-47.2°C0.9%0hPa0V00:00:0000:00:0000:00:00
DL9RDZ-12026-09-04 12:25:3563.97221-22.1813836°42km/h19952m7.0m/s-47.4°C0.9%0hPa0V00:00:0000:00:0000:00:00
DL9RDZ-12026-09-04 12:25:2463.97148-22.1826744°35km/h19888m6.3m/s-47.2°C0.9%0hPa0V00:00:0000:00:0000:00:00
DL9RDZ-12026-09-04 12:25:1363.97086-22.1839345°29km/h19823m5.8m/s-47.5°C0.9%0hPa0V00:00:0000:00:0000:00:00
DL9RDZ-12026-09-04 12:25:0263.97041-22.1850358°22km/h19762m4.7m/s-47.6°C0.9%0hPa0V00:00:0000:00:0000:00:00
DL9RDZ-12026-09-04 12:24:5163.97006-22.1861962°22km/h19702m5.2m/s-47.5°C1.0%0hPa0V00:00:0000:00:0000:00:00
DL9RDZ-12026-09-04 12:24:4263.96992-22.1871074°24km/h19645m4.8m/s-47.2°C0.9%0hPa0V00:00:0000:00:0000:00:00
DL9RDZ-12026-09-04 12:24:3163.96980-22.1883179°24km/h19590m4.2m/s-47.0°C0.9%0hPa0V00:00:0000:00:0000:00:00
DL9RDZ-12026-09-04 12:24:1963.96968-22.1900491°27km/h19523m3.8m/s-47.1°C0.9%0hPa0V00:00:0000:00:0000:00:00
DL9RDZ-12026-09-04 12:24:1063.96959-22.1920281°35km/h19469m5.1m/s-47.1°C0.9%0hPa0V00:00:0000:00:0000:00:00
DL9RDZ-12026-09-04 12:23:5663.96931-22.1944874°33km/h19397m6.3m/s-46.9°C0.9%0hPa0V00:00:0000:00:0000:00:00
DL9RDZ-12026-09-04 12:23:4563.96911-22.1962986°29km/h19335m4.6m/s-46.8°C0.9%0hPa0V00:00:0000:00:0000:00:00
DL9RDZ-12026-09-04 12:23:3563.96881-22.1980073°29km/h19283m4.0m/s-46.7°C0.9%0hPa0V00:00:0000:00:0000:00:00
DL9RDZ-12026-09-04 12:22:5363.96713-22.2057371°35km/h19059m3.9m/s-46.7°C0.9%0hPa0V00:00:0000:00:0000:00:00
DL9RDZ-12026-09-04 12:22:3963.96652-22.2083658°33km/h18982m3.7m/s-46.3°C0.9%0hPa0V00:00:0000:00:0000:00:00
DL9RDZ-12026-09-04 12:22:2863.96594-22.2101863°35km/h18926m6.3m/s-46.2°C0.9%0hPa0V00:00:0000:00:0000:00:00
DL9RDZ-12026-09-04 12:22:1763.96557-22.2120752°33km/h18867m5.3m/s-46.3°C0.9%0hPa0V00:00:0000:00:0000:00:00
DL9RDZ-12026-09-04 12:22:0763.96512-22.2134962°27km/h18813m5.8m/s-46.7°C0.9%0hPa0V00:00:0000:00:0000:00:00
DL9RDZ-12026-09-04 12:21:5663.96471-22.2148353°26km/h18756m4.6m/s-47.2°C0.9%0hPa0V00:00:0000:00:0000:00:00
DL9RDZ-12026-09-04 12:21:4563.96438-22.2164156°31km/h18700m4.9m/s-47.3°C1.0%0hPa0V00:00:0000:00:0000:00:00
DL9RDZ-12026-09-04 12:21:3563.96414-22.2176662°29km/h18647m4.6m/s-47.4°C1.0%0hPa0V00:00:0000:00:0000:00:00
DL9RDZ-12026-09-04 12:21:2463.96396-22.2190289°24km/h18591m4.7m/s-47.6°C1.0%0hPa0V00:00:0000:00:0000:00:00
DL9RDZ-12026-09-04 12:21:1463.96393-22.2205798°27km/h18539m5.3m/s-47.5°C1.0%0hPa0V00:00:0000:00:0000:00:00
DL9RDZ-12026-09-04 12:21:0463.96382-22.2223582°33km/h18487m5.9m/s-47.4°C1.0%0hPa0V00:00:0000:00:0000:00:00
DL9RDZ-12026-09-04 12:20:3463.96308-22.2276766°35km/h18324m4.7m/s-47.3°C0.9%0hPa0V00:00:0000:00:0000:00:00
DL9RDZ-12026-09-04 12:20:2363.96273-22.2291662°31km/h18270m5.6m/s-47.5°C1.0%0hPa0V00:00:0000:00:0000:00:00
DL9RDZ-12026-09-04 12:20:1263.96239-22.2308272°27km/h18209m4.3m/s-47.5°C1.0%0hPa0V00:00:0000:00:0000:00:00
DL9RDZ-12026-09-04 12:20:0163.96207-22.2323653°26km/h18150m4.3m/s-47.6°C1.0%0hPa0V00:00:0000:00:0000:00:00
DL9RDZ-12026-09-04 12:19:5063.96174-22.2335857°27km/h18093m4.5m/s-47.5°C1.0%0hPa0V00:00:0000:00:0000:00:00
DL9RDZ-12026-09-04 12:19:3963.96143-22.2347959°22km/h18037m4.8m/s-47.3°C1.0%0hPa0V00:00:0000:00:0000:00:00
DL9RDZ-12026-09-04 12:19:2963.96116-22.2357849°16km/h17981m4.3m/s-47.2°C1.0%0hPa0V00:00:0000:00:0000:00:00
DL9RDZ-12026-09-04 12:19:1563.96079-22.2369756°16km/h17912m3.6m/s-46.7°C1.0%0hPa0V00:00:0000:00:0000:00:00
DL9RDZ-12026-09-04 12:19:0463.96052-22.2379635°16km/h17853m5.7m/s-46.4°C1.0%0hPa0V00:00:0000:00:0000:00:00
DL9RDZ-12026-09-04 12:18:5063.96029-22.2391976°11km/h17782m4.3m/s-46.2°C0.9%0hPa0V00:00:0000:00:0000:00:00
DL9RDZ-12026-09-04 12:18:3963.96019-22.2399985°20km/h17723m6.0m/s-46.1°C1.0%0hPa0V00:00:0000:00:0000:00:00
DL9RDZ-12026-09-04 12:18:2863.96033-22.2408694°16km/h17666m4.6m/s-46.4°C1.0%0hPa0V00:00:0000:00:0000:00:00
DL9RDZ-12026-09-04 12:18:1763.96043-22.24216102°20km/h17608m5.3m/s-46.7°C1.0%0hPa0V00:00:0000:00:0000:00:00
DL9RDZ-12026-09-04 12:18:0763.96049-22.24319110°26km/h17556m6.1m/s-46.6°C1.0%0hPa0V00:00:0000:00:0000:00:00
DL9RDZ-12026-09-04 12:17:5763.96060-22.2443497°16km/h17499m5.8m/s-46.8°C1.0%0hPa0V00:00:0000:00:0000:00:00
DL9RDZ-12026-09-04 12:17:4663.96069-22.24519122°15km/h17442m4.7m/s-46.4°C1.0%0hPa0V00:00:0000:00:0000:00:00
DL9RDZ-12026-09-04 12:17:3563.96083-22.24623120°24km/h17388m4.2m/s-46.3°C0.9%0hPa0V00:00:0000:00:0000:00:00
DL9RDZ-12026-09-04 12:17:2563.96100-22.2475499°24km/h17337m4.5m/s-46.3°C1.0%0hPa0V00:00:0000:00:0000:00:00
DL9RDZ-12026-09-04 12:17:1563.96112-22.2491099°31km/h17286m6.0m/s-46.1°C1.0%0hPa0V00:00:0000:00:0000:00:00
DL9RDZ-12026-09-04 12:17:0263.96110-22.2514285°31km/h17218m6.0m/s-46.0°C0.9%0hPa0V00:00:0000:00:0000:00:00
DL9RDZ-12026-09-04 12:16:4363.96085-22.2556277°46km/h17123m5.9m/s-46.2°C0.9%0hPa0V00:00:0000:00:0000:00:00
DL9RDZ-12026-09-04 12:16:3063.96054-22.2585372°42km/h17056m4.6m/s-46.0°C1.0%0hPa0V00:00:0000:00:0000:00:00
DL9RDZ-12026-09-04 12:16:1963.96026-22.2607075°38km/h17001m3.5m/s-46.2°C1.0%0hPa0V00:00:0000:00:0000:00:00
DL9RDZ-12026-09-04 12:16:0863.95997-22.2627473°31km/h16945m4.2m/s-46.3°C1.0%0hPa0V00:00:0000:00:0000:00:00
DL9RDZ-12026-09-04 12:15:5763.95959-22.2645372°37km/h16890m3.8m/s-46.6°C1.0%0hPa0V00:00:0000:00:0000:00:00
DL9RDZ-12026-09-04 12:15:4663.95918-22.2664667°33km/h16838m5.6m/s-46.8°C1.0%0hPa0V00:00:0000:00:0000:00:00
DL9RDZ-12026-09-04 12:15:3563.95879-22.2680063°27km/h16780m5.8m/s-47.0°C1.0%0hPa0V00:00:0000:00:0000:00:00
DL9RDZ-12026-09-04 12:15:2463.95839-22.2696363°29km/h16722m5.1m/s-47.0°C1.0%0hPa0V00:00:0000:00:0000:00:00
DL9RDZ-12026-09-04 12:14:2063.95795-22.2776992°37km/h16384m5.2m/s-46.4°C1.0%0hPa0V00:00:0000:00:0000:00:00
DL9RDZ-12026-09-04 12:14:0063.95782-22.2818092°40km/h16277m6.2m/s-46.5°C1.0%0hPa0V00:00:0000:00:0000:00:00
DL9RDZ-12026-09-04 12:13:4963.95770-22.2843679°42km/h16217m5.5m/s-46.5°C1.0%0hPa0V00:00:0000:00:0000:00:00
DL9RDZ-12026-09-04 12:13:3863.95732-22.2867964°40km/h16158m5.1m/s-46.5°C1.0%0hPa0V00:00:0000:00:0000:00:00
DL9RDZ-12026-09-04 12:13:2863.95684-22.2889758°33km/h16100m6.0m/s-46.3°C1.0%0hPa0V00:00:0000:00:0000:00:00
DL9RDZ-12026-09-04 12:13:1763.95637-22.2907966°33km/h16048m4.5m/s-46.3°C1.0%0hPa0V00:00:0000:00:0000:00:00
DL9RDZ-12026-09-04 12:13:0663.95596-22.2925362°37km/h15993m4.1m/s-46.3°C1.0%0hPa0V00:00:0000:00:0000:00:00
DL9RDZ-12026-09-04 12:12:5663.95556-22.2942560°35km/h15943m6.0m/s-46.3°C1.0%0hPa0V00:00:0000:00:0000:00:00
DL9RDZ-12026-09-04 12:12:4563.95518-22.2961461°35km/h15889m5.5m/s-46.1°C1.1%0hPa0V00:00:0000:00:0000:00:00
DL9RDZ-12026-09-04 12:11:3363.95274-22.3094672°38km/h15546m4.4m/s-47.1°C1.1%0hPa0V00:00:0000:00:0000:00:00
DL9RDZ-12026-09-04 12:11:2263.95250-22.3114986°40km/h15492m4.9m/s-47.2°C1.1%0hPa0V00:00:0000:00:0000:00:00
DL9RDZ-12026-09-04 12:11:1263.95232-22.3131068°27km/h15441m3.8m/s-47.4°C1.1%0hPa0V00:00:0000:00:0000:00:00
DL9RDZ-12026-09-04 12:11:0163.95223-22.3149280°33km/h15388m5.4m/s-47.5°C1.2%0hPa0V00:00:0000:00:0000:00:00
DL9RDZ-12026-09-04 12:10:5163.95205-22.3169775°37km/h15334m5.3m/s-47.6°C1.2%0hPa0V00:00:0000:00:0000:00:00
DL9RDZ-12026-09-04 12:10:4063.95181-22.3189978°37km/h15284m4.5m/s-47.6°C1.2%0hPa0V00:00:0000:00:0000:00:00
DL9RDZ-12026-09-04 12:10:2963.95157-22.3211078°35km/h15230m4.7m/s-47.8°C1.2%0hPa0V00:00:0000:00:0000:00:00
DL9RDZ-12026-09-04 12:10:1963.95149-22.3230192°33km/h15180m4.5m/s-47.8°C1.2%0hPa0V00:00:0000:00:0000:00:00
DL9RDZ-12026-09-04 12:10:0863.95144-22.3251879°37km/h15123m5.9m/s-47.4°C1.2%0hPa0V00:00:0000:00:0000:00:00
DL9RDZ-12026-09-04 12:09:5363.95117-22.3281774°33km/h15046m4.2m/s-46.9°C1.2%0hPa0V00:00:0000:00:0000:00:00
DL9RDZ-12026-09-04 12:09:4163.95086-22.3303174°29km/h14986m5.7m/s-46.6°C1.1%0hPa0V00:00:0000:00:0000:00:00
DL9RDZ-12026-09-04 12:09:3163.95060-22.3319360°26km/h14936m5.2m/s-46.2°C1.1%0hPa0V00:00:0000:00:0000:00:00
DL9RDZ-12026-09-04 12:09:2163.95038-22.3332475°27km/h14884m4.8m/s-46.1°C1.1%0hPa0V00:00:0000:00:0000:00:00
DL9RDZ-12026-09-04 12:09:1063.95019-22.3346476°22km/h14829m5.2m/s-46.8°C1.2%0hPa0V00:00:0000:00:0000:00:00
DL9RDZ-12026-09-04 12:09:0063.95004-22.3357481°20km/h14778m4.8m/s-46.9°C1.2%0hPa0V00:00:0000:00:0000:00:00
DL9RDZ-12026-09-04 12:08:3963.95003-22.3389092°35km/h14673m4.0m/s-46.5°C1.2%0hPa0V00:00:0000:00:0000:00:00
DL9RDZ-12026-09-04 12:08:2963.95005-22.3407299°37km/h14623m5.7m/s-46.5°C1.1%0hPa0V00:00:0000:00:0000:00:00
DL9RDZ-12026-09-04 12:08:1863.95010-22.3432088°40km/h14566m3.9m/s-46.4°C1.2%0hPa0V00:00:0000:00:0000:00:00
DL9RDZ-12026-09-04 12:08:0263.94991-22.3472980°51km/h14487m5.0m/s-46.3°C1.2%0hPa0V00:00:0000:00:0000:00:00
DL9RDZ-12026-09-04 12:07:5263.94969-22.3503486°40km/h14431m3.8m/s-45.9°C1.2%0hPa0V00:00:0000:00:0000:00:00
DL9RDZ-12026-09-04 12:07:3363.94927-22.3548276°42km/h14345m4.5m/s-45.5°C1.1%0hPa0V00:00:0000:00:0000:00:00
DL9RDZ-12026-09-04 12:07:2263.94900-22.3574773°46km/h14294m4.1m/s-45.5°C1.1%0hPa0V00:00:0000:00:0000:00:00
DL9RDZ-12026-09-04 12:07:1263.94859-22.3597671°40km/h14245m4.7m/s-45.4°C1.1%0hPa0V00:00:0000:00:0000:00:00
DL9RDZ-12026-09-04 12:07:0263.94827-22.3619272°42km/h14199m4.8m/s-45.5°C1.1%0hPa0V00:00:0000:00:0000:00:00
DL9RDZ-12026-09-04 12:06:5263.94801-22.3640474°37km/h14152m4.5m/s-45.5°C1.1%0hPa0V00:00:0000:00:0000:00:00
DL9RDZ-12026-09-04 12:06:4263.94774-22.3657972°29km/h14103m4.6m/s-46.1°C1.2%0hPa0V00:00:0000:00:0000:00:00
DL9RDZ-12026-09-04 12:06:3163.94744-22.3677863°35km/h14050m4.3m/s-46.0°C1.2%0hPa0V00:00:0000:00:0000:00:00
DL9RDZ-12026-09-04 12:06:2063.94711-22.3696275°31km/h13996m5.5m/s-45.6°C1.2%0hPa0V00:00:0000:00:0000:00:00
DL9RDZ-12026-09-04 12:06:1063.94688-22.3711279°29km/h13947m4.7m/s-45.6°C1.2%0hPa0V00:00:0000:00:0000:00:00
DL9RDZ-12026-09-04 12:05:5963.94684-22.37274102°26km/h13892m5.6m/s-45.8°C1.2%0hPa0V00:00:0000:00:0000:00:00
DL9RDZ-12026-09-04 12:05:4963.94677-22.3742682°26km/h13843m5.1m/s-45.5°C1.2%0hPa0V00:00:0000:00:0000:00:00
DL9RDZ-12026-09-04 12:05:3863.94655-22.3759272°31km/h13789m5.3m/s-45.5°C1.2%0hPa0V00:00:0000:00:0000:00:00
DL9RDZ-12026-09-04 12:05:2763.94613-22.3777662°31km/h13736m5.0m/s-45.5°C1.2%0hPa0V00:00:0000:00:0000:00:00
DL9RDZ-12026-09-04 12:05:1663.94586-22.3795675°33km/h13686m3.6m/s-45.4°C1.2%0hPa0V00:00:0000:00:0000:00:00
DL9RDZ-12026-09-04 12:04:5963.94551-22.3828574°35km/h13603m5.0m/s-45.1°C1.2%0hPa0V00:00:0000:00:0000:00:00
DL9RDZ-12026-09-04 12:04:4963.94526-22.3845673°37km/h13551m4.6m/s-45.1°C1.2%0hPa0V00:00:0000:00:0000:00:00
DL9RDZ-12026-09-04 12:04:3863.94485-22.3866568°33km/h13498m4.9m/s-44.9°C1.2%0hPa0V00:00:0000:00:0000:00:00
DL9RDZ-12026-09-04 12:04:2863.94452-22.3883067°27km/h13447m5.7m/s-44.8°C1.2%0hPa0V00:00:0000:00:0000:00:00
DL9RDZ-12026-09-04 12:04:1763.94418-22.3896252°24km/h13395m5.0m/s-44.7°C1.2%0hPa0V00:00:0000:00:0000:00:00
DL9RDZ-12026-09-04 12:04:0663.94387-22.3910675°24km/h13342m4.2m/s-45.0°C1.2%0hPa0V00:00:0000:00:0000:00:00
DL9RDZ-12026-09-04 12:03:5663.94368-22.3926082°31km/h13291m4.2m/s-45.2°C1.3%0hPa0V00:00:0000:00:0000:00:00
DL9RDZ-12026-09-04 12:03:4563.94354-22.3943680°27km/h13238m4.1m/s-45.0°C1.2%0hPa0V00:00:0000:00:0000:00:00
DL9RDZ-12026-09-04 12:03:3563.94340-22.3957579°22km/h13191m3.2m/s-44.8°C1.2%0hPa0V00:00:0000:00:0000:00:00
DL9RDZ-12026-09-04 12:03:2463.94334-22.3972488°24km/h13141m4.3m/s-44.6°C1.3%0hPa0V00:00:0000:00:0000:00:00
DL9RDZ-12026-09-04 12:03:1463.94334-22.3988089°31km/h13095m4.6m/s-44.7°C1.3%0hPa0V00:00:0000:00:0000:00:00
DL9RDZ-12026-09-04 12:03:0363.94321-22.4005189°26km/h13045m3.3m/s-44.8°C1.3%0hPa0V00:00:0000:00:0000:00:00
DL9RDZ-12026-09-04 12:02:5363.94328-22.4024888°35km/h13001m4.0m/s-44.9°C1.3%0hPa0V00:00:0000:00:0000:00:00
DL9RDZ-12026-09-04 12:02:4263.94324-22.4045293°31km/h12952m4.6m/s-44.7°C1.3%0hPa0V00:00:0000:00:0000:00:00
DL9RDZ-12026-09-04 12:02:3263.94325-22.4065283°37km/h12905m4.2m/s-44.9°C1.3%0hPa0V00:00:0000:00:0000:00:00
DL9RDZ-12026-09-04 12:02:2163.94323-22.4089890°37km/h12859m4.4m/s-44.9°C1.3%0hPa0V00:00:0000:00:0000:00:00
DL9RDZ-12026-09-04 12:02:1163.94312-22.4109784°35km/h12813m5.2m/s-44.6°C1.3%0hPa0V00:00:0000:00:0000:00:00
DL9RDZ-12026-09-04 12:02:0163.94305-22.4131984°42km/h12769m5.5m/s-44.8°C1.3%0hPa0V00:00:0000:00:0000:00:00
DL9RDZ-12026-09-04 12:01:5063.94293-22.4161285°47km/h12717m4.5m/s-45.0°C1.3%0hPa0V00:00:0000:00:0000:00:00
DL9RDZ-12026-09-04 12:01:3963.94280-22.4188483°47km/h12668m4.6m/s-44.8°C1.4%0hPa0V00:00:0000:00:0000:00:00
DL9RDZ-12026-09-04 12:01:2863.94263-22.4211482°38km/h12621m3.7m/s-44.7°C1.3%0hPa0V00:00:0000:00:0000:00:00
DL9RDZ-12026-09-04 12:01:1763.94238-22.4235675°38km/h12572m3.6m/s-44.9°C1.3%0hPa0V00:00:0000:00:0000:00:00
DL9RDZ-12026-09-04 12:01:0763.94218-22.4254971°31km/h12526m5.2m/s-45.1°C1.4%0hPa0V00:00:0000:00:0000:00:00
DL9RDZ-12026-09-04 12:00:5663.94198-22.4276874°35km/h12476m4.0m/s-45.4°C1.4%0hPa0V00:00:0000:00:0000:00:00
DL9RDZ-12026-09-04 12:00:4663.94181-22.4295183°31km/h12428m5.9m/s-45.3°C1.4%0hPa0V00:00:0000:00:0000:00:00
DL9RDZ-12026-09-04 12:00:3563.94167-22.4311678°26km/h12378m4.5m/s-45.2°C1.4%0hPa0V00:00:0000:00:0000:00:00
DL9RDZ-12026-09-04 12:00:2463.94153-22.4327674°29km/h12328m5.4m/s-45.2°C1.4%0hPa0V00:00:0000:00:0000:00:00
DL9RDZ-12026-09-04 12:00:1363.94132-22.4346786°33km/h12275m3.8m/s-45.1°C1.4%0hPa0V00:00:0000:00:0000:00:00
DL9RDZ-12026-09-04 12:00:0363.94115-22.4366480°37km/h12229m5.5m/s-45.4°C1.4%0hPa0V00:00:0000:00:0000:00:00
DL9RDZ-12026-09-04 11:59:5363.94095-22.4387072°37km/h12183m5.3m/s-45.4°C1.4%0hPa0V00:00:0000:00:0000:00:00
DL9RDZ-12026-09-04 11:59:4263.94072-22.4408675°33km/h12134m3.9m/s-45.5°C1.4%0hPa0V00:00:0000:00:0000:00:00
DL9RDZ-12026-09-04 11:59:3263.94050-22.4426978°29km/h12089m5.3m/s-45.4°C1.5%0hPa0V00:00:0000:00:0000:00:00
DL9RDZ-12026-09-04 11:59:2163.94040-22.4444179°26km/h12037m3.9m/s-45.5°C1.5%0hPa0V00:00:0000:00:0000:00:00
DL9RDZ-12026-09-04 11:59:1063.94022-22.4459378°29km/h11986m5.6m/s-45.3°C1.5%0hPa0V00:00:0000:00:0000:00:00
DL9RDZ-12026-09-04 11:58:5963.94007-22.4476774°31km/h11933m4.3m/s-45.3°C1.6%0hPa0V00:00:0000:00:0000:00:00
DL9RDZ-12026-09-04 11:58:4963.93975-22.4496370°31km/h11884m3.9m/s-45.4°C1.6%0hPa0V00:00:0000:00:0000:00:00
DL9RDZ-12026-09-04 11:58:3763.93948-22.4514773°35km/h11835m3.9m/s-45.4°C1.6%0hPa0V00:00:0000:00:0000:00:00
DL9RDZ-12026-09-04 11:58:2763.93919-22.4532574°29km/h11792m4.5m/s-45.2°C1.7%0hPa0V00:00:0000:00:0000:00:00
DL9RDZ-12026-09-04 11:58:1663.93900-22.4551179°31km/h11742m4.3m/s-45.3°C1.7%0hPa0V00:00:0000:00:0000:00:00
DL9RDZ-12026-09-04 11:58:0563.93888-22.4568194°26km/h11695m4.5m/s-45.2°C1.8%0hPa0V00:00:0000:00:0000:00:00
DL9RDZ-12026-09-04 11:57:5563.93888-22.45789110°15km/h11653m5.2m/s-45.2°C1.8%0hPa0V00:00:0000:00:0000:00:00
DL9RDZ-12026-09-04 11:57:4463.93901-22.4590199°18km/h11602m4.1m/s-45.1°C1.8%0hPa0V00:00:0000:00:0000:00:00
DL9RDZ-12026-09-04 11:57:3463.93908-22.45997106°20km/h11557m4.3m/s-45.5°C1.9%0hPa0V00:00:0000:00:0000:00:00
DL9RDZ-12026-09-04 11:57:2363.93916-22.4613399°29km/h11508m4.0m/s-45.6°C1.9%0hPa0V00:00:0000:00:0000:00:00
DL9RDZ-12026-09-04 11:57:1363.93928-22.4628998°26km/h11464m4.7m/s-45.4°C1.9%0hPa0V00:00:0000:00:0000:00:00
DL9RDZ-12026-09-04 11:57:0263.93924-22.4646290°31km/h11418m4.5m/s-45.3°C1.9%0hPa0V00:00:0000:00:0000:00:00
DL9RDZ-12026-09-04 11:56:5163.93908-22.4664784°31km/h11368m3.9m/s-45.6°C1.9%0hPa0V00:00:0000:00:0000:00:00
DL9RDZ-12026-09-04 11:56:4163.93893-22.4683684°31km/h11325m3.8m/s-45.5°C1.9%0hPa0V00:00:0000:00:0000:00:00
DL9RDZ-12026-09-04 11:56:3063.93876-22.4703373°37km/h11276m4.7m/s-45.9°C2.0%0hPa0V00:00:0000:00:0000:00:00
DL9RDZ-12026-09-04 11:56:2063.93845-22.4721582°33km/h11231m4.2m/s-46.2°C2.0%0hPa0V00:00:0000:00:0000:00:00
DL9RDZ-12026-09-04 11:56:0963.93828-22.4740583°26km/h11183m4.2m/s-46.3°C2.1%0hPa0V00:00:0000:00:0000:00:00
DL9RDZ-12026-09-04 11:55:5863.93817-22.4756984°24km/h11135m4.2m/s-46.8°C2.2%0hPa0V00:00:0000:00:0000:00:00
DL9RDZ-12026-09-04 11:55:4063.93818-22.4787581°27km/h11051m3.8m/s-46.8°C2.3%0hPa0V00:00:0000:00:0000:00:00
DL9RDZ-12026-09-04 11:55:2863.93794-22.4804571°29km/h11004m3.3m/s-46.9°C2.6%0hPa0V00:00:0000:00:0000:00:00
DL9RDZ-12026-09-04 11:55:1763.93781-22.4820188°27km/h10956m3.4m/s-47.2°C2.9%0hPa0V00:00:0000:00:0000:00:00
DL9RDZ-12026-09-04 11:55:0763.93782-22.48353103°22km/h10915m4.2m/s-47.3°C3.0%0hPa0V00:00:0000:00:0000:00:00
DL9RDZ-12026-09-04 11:54:5763.93792-22.4850998°31km/h10873m4.3m/s-47.8°C3.4%0hPa0V00:00:0000:00:0000:00:00
DL9RDZ-12026-09-04 11:54:4763.93795-22.4864591°24km/h10830m4.0m/s-48.0°C3.9%0hPa0V00:00:0000:00:0000:00:00
DL9RDZ-12026-09-04 11:54:3763.93797-22.4877598°24km/h10787m5.0m/s-48.3°C4.7%0hPa0V00:00:0000:00:0000:00:00
DL9RDZ-12026-09-04 11:54:2663.93797-22.4891295°15km/h10739m3.4m/s-49.0°C5.1%0hPa0V00:00:0000:00:0000:00:00
DL9RDZ-12026-09-04 11:54:0563.93793-22.4911795°16km/h10647m4.6m/s-49.3°C5.2%0hPa0V00:00:0000:00:0000:00:00
DL9RDZ-12026-09-04 11:53:5463.93785-22.4922486°18km/h10599m3.2m/s-49.1°C5.4%0hPa0V00:00:0000:00:0000:00:00
DL9RDZ-12026-09-04 11:53:4463.93773-22.4932163°24km/h10556m3.7m/s-49.4°C6.0%0hPa0V00:00:0000:00:0000:00:00
DL9RDZ-12026-09-04 11:53:3363.93761-22.4944285°20km/h10509m4.4m/s-49.3°C6.4%0hPa0V00:00:0000:00:0000:00:00
DL9RDZ-12026-09-04 11:53:2363.93762-22.4957397°22km/h10465m5.1m/s-50.2°C7.7%0hPa0V00:00:0000:00:0000:00:00
DL9RDZ-12026-09-04 11:53:1363.93764-22.4972298°26km/h10423m5.2m/s-50.5°C8.7%0hPa0V00:00:0000:00:0000:00:00
DL9RDZ-12026-09-04 11:53:0263.93771-22.49872103°24km/h10372m5.7m/s-51.6°C10.8%0hPa0V00:00:0000:00:0000:00:00
DL9RDZ-12026-09-04 11:52:5263.93775-22.4998799°16km/h10326m4.6m/s-51.9°C12.9%0hPa0V00:00:0000:00:0000:00:00
DL9RDZ-12026-09-04 11:52:4263.93776-22.5010989°20km/h10276m4.3m/s-52.2°C14.7%0hPa0V00:00:0000:00:0000:00:00
DL9RDZ-12026-09-04 11:52:3063.93765-22.5022369°16km/h10225m5.2m/s-52.5°C17.9%0hPa0V00:00:0000:00:0000:00:00
DL9RDZ-12026-09-04 11:52:1963.93750-22.5029943°16km/h10175m3.5m/s-53.2°C21.8%0hPa0V00:00:0000:00:0000:00:00
DL9RDZ-12026-09-04 11:52:0963.93718-22.5037838°20km/h10131m4.3m/s-53.2°C21.6%0hPa0V00:00:0000:00:0000:00:00
DL9RDZ-12026-09-04 11:51:5863.93674-22.5044737°18km/h10082m4.2m/s-53.1°C23.4%0hPa0V00:00:0000:00:0000:00:00
DL9RDZ-12026-09-04 11:51:4763.93643-22.5055652°22km/h10035m5.1m/s-53.0°C25.7%0hPa0V00:00:0000:00:0000:00:00
DL9RDZ-12026-09-04 11:51:3663.93605-22.5065842°20km/h9986m3.8m/s-53.0°C25.9%0hPa0V00:00:0000:00:0000:00:00
DL9RDZ-12026-09-04 11:51:2663.93563-22.5071629°20km/h9944m5.0m/s-52.8°C27.1%0hPa0V00:00:0000:00:0000:00:00
DL9RDZ-12026-09-04 11:51:1563.93522-22.5078328°16km/h9896m3.1m/s-52.6°C28.1%0hPa0V00:00:0000:00:0000:00:00
DL9RDZ-12026-09-04 11:51:0563.93487-22.5083834°20km/h9852m4.5m/s-53.0°C31.3%0hPa0V00:00:0000:00:0000:00:00
DL9RDZ-12026-09-04 11:50:5463.93456-22.5088025°9km/h9806m4.6m/s-53.6°C35.4%0hPa0V00:00:0000:00:0000:00:00
DL9RDZ-12026-09-04 11:50:4363.93435-22.5090134°4km/h9760m3.5m/s-53.5°C36.3%0hPa0V00:00:0000:00:0000:00:00
DL9RDZ-12026-09-04 11:50:3363.93425-22.50877361°9km/h9718m3.7m/s-53.3°C39.5%0hPa0V00:00:0000:00:0000:00:00
DL9RDZ-12026-09-04 11:50:2263.93411-22.5090149°11km/h9656m4.1m/s-53.5°C44.2%0hPa0V00:00:0000:00:0000:00:00
DL9RDZ-12026-09-04 11:50:1163.93387-22.5097059°13km/h9604m4.5m/s-53.3°C47.8%0hPa0V00:00:0000:00:0000:00:00
DL9RDZ-12026-09-04 11:50:0063.93366-22.5105757°18km/h9553m4.8m/s-53.6°C52.9%0hPa0V00:00:0000:00:0000:00:00
DL9RDZ-12026-09-04 11:49:4963.93345-22.5113073°11km/h9503m5.0m/s-53.3°C52.4%0hPa0V00:00:0000:00:0000:00:00
DL9RDZ-12026-09-04 11:49:3863.93333-22.5120593°9km/h9451m4.5m/s-53.0°C52.5%0hPa0V00:00:0000:00:0000:00:00
DL9RDZ-12026-09-04 11:49:2763.93321-22.5127669°13km/h9402m5.4m/s-52.8°C51.0%0hPa0V00:00:0000:00:0000:00:00
DL9RDZ-12026-09-04 11:49:1763.93311-22.5133283°13km/h9357m4.3m/s-52.5°C47.1%0hPa0V00:00:0000:00:0000:00:00
DL9RDZ-12026-09-04 11:49:0663.93301-22.5139979°11km/h9306m4.2m/s-52.2°C39.6%0hPa0V00:00:0000:00:0000:00:00
DL9RDZ-12026-09-04 11:48:4563.93278-22.5149527°5km/h9217m4.5m/s-51.5°C40.1%0hPa0V00:00:0000:00:0000:00:00
DL9RDZ-12026-09-04 11:48:3563.93266-22.5152191°9km/h9170m4.9m/s-51.3°C38.9%0hPa0V00:00:0000:00:0000:00:00
DL9RDZ-12026-09-04 11:48:2463.93259-22.5157778°18km/h9118m5.8m/s-50.9°C39.7%0hPa0V00:00:0000:00:0000:00:00
DL9RDZ-12026-09-04 11:48:1363.93237-22.5163279°5km/h9063m6.2m/s-50.9°C42.1%0hPa0V00:00:0000:00:0000:00:00
DL9RDZ-12026-09-04 11:48:0263.93225-22.5168253°13km/h9010m3.7m/s-50.8°C44.9%0hPa0V00:00:0000:00:0000:00:00
DL9RDZ-12026-09-04 11:47:5263.93212-22.5175058°11km/h8959m5.7m/s-50.6°C47.7%0hPa0V00:00:0000:00:0000:00:00
DL9RDZ-12026-09-04 11:47:4163.93200-22.5179357°9km/h8913m5.4m/s-50.5°C55.3%0hPa0V00:00:0000:00:0000:00:00
DL9RDZ-12026-09-04 11:47:3063.93184-22.518184km/h8861m4.6m/s-50.5°C66.1%0hPa0V00:00:0000:00:0000:00:00
DL9RDZ-12026-09-04 11:47:2063.93181-22.51829136°4km/h8817m4.3m/s-50.2°C64.5%0hPa0V00:00:0000:00:0000:00:00
DL9RDZ-12026-09-04 11:47:0963.93177-22.518470km/h8767m5.2m/s-49.7°C63.6%0hPa0V00:00:0000:00:0000:00:00
DL9RDZ-12026-09-04 11:46:5863.93176-22.51869111°4km/h8719m3.6m/s-49.3°C63.0%0hPa0V00:00:0000:00:0000:00:00
DL9RDZ-12026-09-04 11:46:4763.93181-22.5187969°4km/h8672m3.0m/s-48.9°C63.6%0hPa0V00:00:0000:00:0000:00:00
DL9RDZ-12026-09-04 11:46:3763.93180-22.5189667°4km/h8629m4.5m/s-48.6°C63.0%0hPa0V00:00:0000:00:0000:00:00
DL9RDZ-12026-09-04 11:46:2863.93181-22.5191365°2km/h8585m2.7m/s-48.2°C65.0%0hPa0V00:00:0000:00:0000:00:00
DL9RDZ-12026-09-04 11:46:1663.93182-22.51939157°7km/h8533m3.6m/s-47.8°C61.3%0hPa0V00:00:0000:00:0000:00:00
DL9RDZ-12026-09-04 11:46:0663.93179-22.51966105°2km/h8491m4.3m/s-47.4°C61.5%0hPa0V00:00:0000:00:0000:00:00
DL9RDZ-12026-09-04 11:45:5563.93177-22.5199280°7km/h8444m3.4m/s-47.0°C59.8%0hPa0V00:00:0000:00:0000:00:00
DL9RDZ-12026-09-04 11:45:4463.93176-22.5202878°11km/h8397m4.4m/s-46.6°C64.1%0hPa0V00:00:0000:00:0000:00:00
DL9RDZ-12026-09-04 11:45:3463.93173-22.5206583°9km/h8348m4.7m/s-46.2°C61.8%0hPa0V00:00:0000:00:0000:00:00
DL9RDZ-12026-09-04 11:45:2263.93170-22.5212292°4km/h8299m5.2m/s-45.7°C62.7%0hPa0V00:00:0000:00:0000:00:00
DL9RDZ-12026-09-04 11:45:1263.93168-22.5215687°5km/h8257m4.8m/s-45.5°C65.3%0hPa0V00:00:0000:00:0000:00:00
DL9RDZ-12026-09-04 11:45:0163.93166-22.52197119°7km/h8208m4.4m/s-45.2°C67.9%0hPa0V00:00:0000:00:0000:00:00
DL9RDZ-12026-09-04 11:44:5163.93164-22.5223766°9km/h8166m4.5m/s-44.8°C67.0%0hPa0V00:00:0000:00:0000:00:00
DL9RDZ-12026-09-04 11:44:4163.93161-22.5229074°11km/h8120m4.0m/s-44.5°C68.2%0hPa0V00:00:0000:00:0000:00:00
DL9RDZ-12026-09-04 11:44:3063.93154-22.5235449°9km/h8074m4.3m/s-44.2°C74.6%0hPa0V00:00:0000:00:0000:00:00
DL9RDZ-12026-09-04 11:44:2063.93145-22.5242080°11km/h8030m4.9m/s-43.8°C74.9%0hPa0V00:00:0000:00:0000:00:00
DL9RDZ-12026-09-04 11:44:0963.93141-22.5249288°13km/h7981m3.1m/s-43.4°C68.3%0hPa0V00:00:0000:00:0000:00:00
DL9RDZ-12026-09-04 11:43:5963.93136-22.5255387°15km/h7938m4.6m/s-43.0°C61.3%0hPa0V00:00:0000:00:0000:00:00
DL9RDZ-12026-09-04 11:43:4863.93146-22.52612132°15km/h7885m5.4m/s-42.8°C66.3%0hPa0V00:00:0000:00:0000:00:00
DL9RDZ-12026-09-04 11:43:3763.93149-22.5269994°13km/h7824m5.1m/s-42.3°C70.0%0hPa0V00:00:0000:00:0000:00:00
DL9RDZ-12026-09-04 11:43:2763.93152-22.5277089°13km/h7771m6.5m/s-42.0°C71.5%0hPa0V00:00:0000:00:0000:00:00
DL9RDZ-12026-09-04 11:43:1663.93155-22.5286878°16km/h7715m4.3m/s-41.5°C73.7%0hPa0V00:00:0000:00:0000:00:00
DL9RDZ-12026-09-04 11:43:0563.93153-22.5295881°15km/h7666m4.2m/s-41.1°C72.8%0hPa0V00:00:0000:00:0000:00:00
DL9RDZ-12026-09-04 11:42:5563.93153-22.5305083°16km/h7621m4.2m/s-40.7°C72.4%0hPa0V00:00:0000:00:0000:00:00
DL9RDZ-12026-09-04 11:42:4563.93156-22.5313395°16km/h7577m5.9m/s-40.4°C68.3%0hPa0V00:00:0000:00:0000:00:00
DL9RDZ-12026-09-04 11:42:3463.93158-22.5323288°18km/h7520m4.5m/s-39.9°C67.2%0hPa0V00:00:0000:00:0000:00:00
DL9RDZ-12026-09-04 11:42:2463.93161-22.53308124°13km/h7478m4.2m/s-39.6°C71.2%0hPa0V00:00:0000:00:0000:00:00
DL9RDZ-12026-09-04 11:42:1363.93168-22.53401108°18km/h7431m4.1m/s-39.3°C70.2%0hPa0V00:00:0000:00:0000:00:00
DL9RDZ-12026-09-04 11:42:0263.93182-22.53509121°16km/h7380m5.3m/s-38.9°C65.7%0hPa0V00:00:0000:00:0000:00:00
DL9RDZ-12026-09-04 11:41:5263.93198-22.53580122°9km/h7328m5.2m/s-38.5°C66.2%0hPa0V00:00:0000:00:0000:00:00
DL9RDZ-12026-09-04 11:41:4263.93204-22.53683114°13km/h7277m4.2m/s-38.3°C63.1%0hPa0V00:00:0000:00:0000:00:00
DL9RDZ-12026-09-04 11:41:3163.93229-22.53790135°20km/h7213m7.1m/s-37.8°C52.7%0hPa0V00:00:0000:00:0000:00:00
DL9RDZ-12026-09-04 11:41:2163.93259-22.53894129°22km/h7167m3.3m/s-37.4°C49.0%0hPa0V00:00:0000:00:0000:00:00
DL9RDZ-12026-09-04 11:41:1063.93296-22.54006119°20km/h7123m4.0m/s-37.1°C46.4%0hPa0V00:00:0000:00:0000:00:00
DL9RDZ-12026-09-04 11:41:0063.93328-22.54115131°22km/h7081m3.5m/s-36.7°C45.9%0hPa0V00:00:0000:00:0000:00:00
DL9RDZ-12026-09-04 11:40:4963.93364-22.54231132°27km/h7033m4.4m/s-36.3°C51.8%0hPa0V00:00:0000:00:0000:00:00
DL9RDZ-12026-09-04 11:40:3963.93401-22.54327137°22km/h6989m4.7m/s-35.9°C47.9%0hPa0V00:00:0000:00:0000:00:00
DL9RDZ-12026-09-04 11:40:2863.93442-22.54432124°26km/h6944m4.1m/s-35.5°C41.3%0hPa0V00:00:0000:00:0000:00:00
DL9RDZ-12026-09-04 11:40:1863.93481-22.54534127°24km/h6899m3.7m/s-35.1°C38.8%0hPa0V00:00:0000:00:0000:00:00
DL9RDZ-12026-09-04 11:40:0763.93526-22.54649141°24km/h6851m4.1m/s-34.6°C36.4%0hPa0V00:00:0000:00:0000:00:00
DL9RDZ-12026-09-04 11:39:5663.93568-22.54749134°24km/h6803m3.8m/s-34.2°C35.3%0hPa0V00:00:0000:00:0000:00:00
DL9RDZ-12026-09-04 11:39:0963.93755-22.55195118°33km/h6604m3.5m/s-32.5°C33.7%0hPa0V00:00:0000:00:0000:00:00
DL9RDZ-12026-09-04 11:38:4763.93866-22.55458130°27km/h6493m4.6m/s-31.5°C31.4%0hPa0V00:00:0000:00:0000:00:00
DL9RDZ-12026-09-04 11:38:3663.93919-22.55577137°26km/h6441m4.3m/s-31.1°C30.6%0hPa0V00:00:0000:00:0000:00:00
DL9RDZ-12026-09-04 11:38:2563.93975-22.55699150°27km/h6387m4.6m/s-30.7°C35.1%0hPa0V00:00:0000:00:0000:00:00
DL9RDZ-12026-09-04 11:38:1463.94039-22.55825134°31km/h6327m4.7m/s-30.1°C32.1%0hPa0V00:00:0000:00:0000:00:00
DL9RDZ-12026-09-04 11:38:0463.94093-22.55954128°27km/h6272m4.7m/s-29.5°C29.1%0hPa0V00:00:0000:00:0000:00:00
DL9RDZ-12026-09-04 11:37:4163.94222-22.56257131°37km/h6152m4.8m/s-28.5°C27.0%0hPa0V00:00:0000:00:0000:00:00
DL9RDZ-12026-09-04 11:37:3063.94279-22.56404133°33km/h6097m4.0m/s-28.0°C26.0%0hPa0V00:00:0000:00:0000:00:00
DL9RDZ-12026-09-04 11:37:1963.94332-22.56552127°33km/h6050m4.1m/s-27.6°C26.4%0hPa0V00:00:0000:00:0000:00:00
DL9RDZ-12026-09-04 11:37:0963.94379-22.56697125°31km/h6006m4.2m/s-27.2°C27.1%0hPa0V00:00:0000:00:0000:00:00
DL9RDZ-12026-09-04 11:36:5863.94427-22.56858129°27km/h5959m2.6m/s-26.7°C26.3%0hPa0V00:00:0000:00:0000:00:00
DL9RDZ-12026-09-04 11:36:4863.94474-22.56977131°29km/h5916m5.1m/s-26.3°C23.7%0hPa0V00:00:0000:00:0000:00:00
DL9RDZ-12026-09-04 11:36:3863.94522-22.57068140°27km/h5868m5.8m/s-26.0°C17.6%0hPa0V00:00:0000:00:0000:00:00
DL9RDZ-12026-09-04 11:36:2763.94562-22.57213129°27km/h5807m4.7m/s-25.6°C15.2%0hPa0V00:00:0000:00:0000:00:00
DL9RDZ-12026-09-04 11:36:1763.94604-22.57366121°27km/h5761m4.2m/s-25.4°C28.2%0hPa0V00:00:0000:00:0000:00:00
DL9RDZ-12026-09-04 11:36:0763.94633-22.57479125°24km/h5702m5.5m/s-24.8°C15.9%0hPa0V00:00:0000:00:0000:00:00
DL9RDZ-12026-09-04 11:35:5663.94666-22.57580115°16km/h5655m4.5m/s-24.7°C47.5%0hPa0V00:00:0000:00:0000:00:00
DL9RDZ-12026-09-04 11:35:5063.94688-22.57684116°26km/h5610m5.5m/s-24.4°C49.6%0hPa0V00:00:0000:00:0000:00:00
DL9RDZ-12026-09-04 11:35:3563.94707-22.57769106°11km/h5569m4.5m/s-24.1°C56.4%0hPa0V00:00:0000:00:0000:00:00
DL9RDZ-12026-09-04 11:35:2463.94730-22.5787795°16km/h5523m5.0m/s-23.7°C62.7%0hPa0V00:00:0000:00:0000:00:00
DL9RDZ-12026-09-04 11:35:1363.94744-22.57951130°18km/h5467m5.3m/s-23.4°C67.4%0hPa0V00:00:0000:00:0000:00:00
DL9RDZ-12026-09-04 11:35:0363.94753-22.58022107°18km/h5419m5.5m/s-23.0°C65.9%0hPa0V00:00:0000:00:0000:00:00
DL9RDZ-12026-09-04 11:34:5363.94773-22.58089151°13km/h5358m5.2m/s-22.7°C69.9%0hPa0V00:00:0000:00:0000:00:00
DL9RDZ-12026-09-04 11:34:4163.94801-22.58161143°9km/h5303m5.1m/s-22.3°C71.7%0hPa0V00:00:0000:00:0000:00:00
DL9RDZ-12026-09-04 11:34:2963.94835-22.58208132°13km/h5244m5.1m/s-21.9°C75.5%0hPa0V00:00:0000:00:0000:00:00
DL9RDZ-12026-09-04 11:34:1863.94849-22.58284140°15km/h5191m4.3m/s-21.5°C76.7%0hPa0V00:00:0000:00:0000:00:00
DL9RDZ-12026-09-04 11:34:0863.94870-22.58338131°11km/h5147m3.5m/s-21.2°C75.3%0hPa0V00:00:0000:00:0000:00:00
DL9RDZ-12026-09-04 11:33:5763.94902-22.58388121°13km/h5092m6.7m/s-20.8°C65.3%0hPa0V00:00:0000:00:0000:00:00
DL9RDZ-12026-09-04 11:33:4663.94934-22.58415137°24km/h5028m5.0m/s-20.2°C60.2%0hPa0V00:00:0000:00:0000:00:00
DL9RDZ-12026-09-04 11:33:3663.94969-22.58520156°15km/h4973m5.6m/s-19.7°C55.8%0hPa0V00:00:0000:00:0000:00:00
DL9RDZ-12026-09-04 11:33:2663.94999-22.58546168°15km/h4927m6.5m/s-19.3°C47.7%0hPa0V00:00:0000:00:0000:00:00
DL9RDZ-12026-09-04 11:33:1563.95030-22.58596102°13km/h4868m3.7m/s-18.8°C47.1%0hPa0V00:00:0000:00:0000:00:00
DL9RDZ-12026-09-04 11:33:0463.95051-22.58685135°24km/h4810m4.9m/s-18.3°C48.6%0hPa0V00:00:0000:00:0000:00:00
DL9RDZ-12026-09-04 11:32:5363.95090-22.58770132°24km/h4750m5.2m/s-18.1°C50.4%0hPa0V00:00:0000:00:0000:00:00
DL9RDZ-12026-09-04 11:32:4363.95115-22.58845145°18km/h4707m3.7m/s-17.7°C49.7%0hPa0V00:00:0000:00:0000:00:00
DL9RDZ-12026-09-04 11:32:3263.95151-22.58905152°18km/h4663m3.1m/s-17.4°C49.4%0hPa0V00:00:0000:00:0000:00:00
DL9RDZ-12026-09-04 11:31:5963.95266-22.59102129°11km/h4499m4.2m/s-16.2°C45.4%0hPa0V00:00:0000:00:0000:00:00
DL9RDZ-12026-09-04 11:31:4763.95294-22.59172132°26km/h4453m5.7m/s-15.8°C46.1%0hPa0V00:00:0000:00:0000:00:00
DL9RDZ-12026-09-04 11:30:5963.95444-22.59569124°16km/h4202m4.6m/s-14.0°C49.6%0hPa0V00:00:0000:00:0000:00:00
DL9RDZ-12026-09-04 11:30:4863.95484-22.59659120°24km/h4155m3.8m/s-13.5°C51.5%0hPa0V00:00:0000:00:0000:00:00
DL9RDZ-12026-09-04 11:30:3763.95528-22.59728129°26km/h4094m6.0m/s-13.4°C63.2%0hPa0V00:00:0000:00:0000:00:00
DL9RDZ-12026-09-04 11:30:2763.95561-22.59762176°16km/h4042m2.6m/s-13.2°C70.5%0hPa0V00:00:0000:00:0000:00:00
DL9RDZ-12026-09-04 11:30:1763.95611-22.59829157°11km/h3995m7.1m/s-13.0°C73.7%0hPa0V00:00:0000:00:0000:00:00
DL9RDZ-12026-09-04 11:30:0563.95636-22.59856190°11km/h3947m5.4m/s-12.7°C72.8%0hPa0V00:00:0000:00:0000:00:00
DL9RDZ-12026-09-04 11:29:5563.95657-22.59851165°16km/h3903m3.3m/s-12.3°C72.0%0hPa0V00:00:0000:00:0000:00:00
DL9RDZ-12026-09-04 11:29:4563.95685-22.59869173°15km/h3859m6.2m/s-12.1°C69.4%0hPa0V00:00:0000:00:0000:00:00
DL9RDZ-12026-09-04 11:29:3563.95701-22.59882133°9km/h3800m5.0m/s-11.8°C69.7%0hPa0V00:00:0000:00:0000:00:00
DL9RDZ-12026-09-04 11:29:2563.95703-22.59902116°13km/h3753m6.4m/s-11.4°C68.9%0hPa0V00:00:0000:00:0000:00:00
DL9RDZ-12026-09-04 11:29:1463.95723-22.59951143°11km/h3693m5.1m/s-10.9°C64.3%0hPa0V00:00:0000:00:0000:00:00
DL9RDZ-12026-09-04 11:29:0463.95747-22.59955176°2km/h3644m6.6m/s-10.6°C63.2%0hPa0V00:00:0000:00:0000:00:00
DL9RDZ-12026-09-04 11:28:5363.95779-22.599680km/h3596m6.2m/s-10.1°C62.8%0hPa0V00:00:0000:00:0000:00:00
DL9RDZ-12026-09-04 11:25:3563.95831-22.59629251°11km/h2589m5.4m/s-5.1°C82.6%0hPa0V00:00:0000:00:0000:00:00
DL9RDZ-12026-09-04 11:25:2463.95824-22.5963367°9km/h2530m5.4m/s-4.8°C82.0%0hPa0V00:00:0000:00:0000:00:00
DL9RDZ-12026-09-04 11:24:2463.95822-22.59630120°11km/h2212m5.1m/s-3.1°C82.4%0hPa0V00:00:0000:00:0000:00:00
DL9RDZ-12026-09-04 11:24:1263.95834-22.59642164°11km/h2142m4.3m/s-2.9°C87.6%0hPa0V00:00:0000:00:0000:00:00
DL9RDZ-12026-09-04 11:23:4963.95828-22.59695268°2km/h2021m4.9m/s-2.5°C84.1%0hPa0V00:00:0000:00:0000:00:00
DL9RDZ-12026-09-04 11:23:3963.95829-22.59727110°13km/h1960m7.3m/s-2.2°C82.5%0hPa0V00:00:0000:00:0000:00:00
DL9RDZ-12026-09-04 11:23:2963.95836-22.59766101°11km/h1900m6.5m/s-2.0°C81.6%0hPa0V00:00:0000:00:0000:00:00
DL9RDZ-12026-09-04 11:23:1863.95862-22.59846108°13km/h1843m4.4m/s-1.8°C71.9%0hPa0V00:00:0000:00:0000:00:00
DL9RDZ-12026-09-04 11:23:0863.95879-22.59937155°15km/h1792m5.9m/s-1.6°C0%0hPa0V00:00:0000:00:0000:00:00
DL9RDZ-12026-09-04 11:22:5863.95898-22.59982134°11km/h1739m7.4m/s0°C0%0hPa0V00:00:0000:00:0000:00:00
DL9RDZ-12026-09-04 11:22:4763.95919-22.60021167°11km/h1674m6.4m/s0°C0%0hPa0V00:00:0000:00:0000:00:00
DL9RDZ-12026-09-04 11:21:5063.96041-22.60145216°11km/h1351m4.0m/s0°C0%0hPa0V00:00:0000:00:0000:00:00
DL9RDZ-12026-09-04 11:21:3963.96064-22.60145174°15km/h1290m5.4m/s0°C0%0hPa0V00:00:0000:00:0000:00:00
DL9RDZ-12026-09-04 11:21:2863.96083-22.60173352°4km/h1229m5.4m/s0°C0%0hPa0V00:00:0000:00:0000:00:00
DL9RDZ-12026-09-04 11:21:1563.96110-22.60162173°20km/h1146m3.6m/s0°C0%0hPa0V00:00:0000:00:0000:00:00
DL9RDZ-12026-09-04 11:21:0463.96153-22.60176187°13km/h1080m6.4m/s0°C0%0hPa0V00:00:0000:00:0000:00:00
DL9RDZ-12026-09-04 11:20:5163.96187-22.60204122°7km/h1016m6.5m/s0°C0%0hPa0V00:00:0000:00:0000:00:00
DL9RDZ-12026-09-04 11:20:3263.96243-22.60296175°9km/h919m4.5m/s0°C0%0hPa0V00:00:0000:00:0000:00:00
DL9RDZ-12026-09-04 11:20:1963.96273-22.60384102°9km/h861m7.4m/s0°C0%0hPa0V00:00:0000:00:0000:00:00
DL9RDZ-12026-09-04 11:20:0963.96304-22.60437183°9km/h809m3.5m/s0°C0%0hPa0V00:00:0000:00:0000:00:00
DL9RDZ-12026-09-04 11:19:5863.96347-22.60486165°27km/h762m4.4m/s0°C0%0hPa0V00:00:0000:00:0000:00:00


GPX KML Map

© wettersonde.net (DO2JMG) - 2026  -  -